createdAt,value
2018-07-28T00:00:28.000Z,99508
2018-07-28T00:02:44.000Z,99514
2018-07-28T00:04:28.000Z,99511
2018-07-28T00:05:44.000Z,99505
2018-07-28T00:06:44.000Z,99506
2018-07-28T00:07:44.000Z,99501
2018-07-28T00:09:44.000Z,99499
2018-07-28T00:10:44.000Z,99497
2018-07-28T00:12:44.000Z,99497
2018-07-28T00:13:44.000Z,99506
2018-07-28T00:15:29.000Z,99490
2018-07-28T00:16:44.000Z,99505
2018-07-28T00:17:44.000Z,99502
2018-07-28T00:19:44.000Z,99493
2018-07-28T00:20:44.000Z,99491
2018-07-28T00:21:44.000Z,99493
2018-07-28T00:23:29.000Z,99494
2018-07-28T00:24:44.000Z,99491
2018-07-28T00:25:44.000Z,99492
2018-07-28T00:27:44.000Z,99492
2018-07-28T00:29:44.000Z,99495
2018-07-28T00:31:44.000Z,99487
2018-07-28T00:32:44.000Z,99493
2018-07-28T00:34:44.000Z,99488
2018-07-28T00:36:29.000Z,99489
2018-07-28T00:37:44.000Z,99485
2018-07-28T00:39:29.000Z,99488
2018-07-28T00:40:44.000Z,99485
2018-07-28T00:41:44.000Z,99485
2018-07-28T00:43:44.000Z,99477
2018-07-28T00:45:44.000Z,99470
2018-07-28T00:47:44.000Z,99469
2018-07-28T00:48:44.000Z,99467
2018-07-28T00:50:44.000Z,99464
2018-07-28T00:52:44.000Z,99468
2018-07-28T00:53:44.000Z,99465
2018-07-28T00:55:44.000Z,99463
2018-07-28T00:57:44.000Z,99467
2018-07-28T00:59:44.000Z,99467
2018-07-28T01:01:44.000Z,99460
2018-07-28T01:03:44.000Z,99464
2018-07-28T01:04:44.000Z,99454
2018-07-28T01:06:44.000Z,99458
2018-07-28T01:08:44.000Z,99452
2018-07-28T01:10:44.000Z,99461
2018-07-28T01:11:44.000Z,99455
2018-07-28T01:13:29.000Z,99450
2018-07-28T01:14:44.000Z,99451
2018-07-28T01:16:44.000Z,99445
2018-07-28T01:18:29.000Z,99446
2018-07-28T01:19:44.000Z,99442
2018-07-28T01:20:44.000Z,99439
2018-07-28T01:22:44.000Z,99443
2018-07-28T01:23:44.000Z,99441
2018-07-28T01:25:44.000Z,99440
2018-07-28T01:27:44.000Z,99439
2018-07-28T01:29:44.000Z,99440
2018-07-28T01:30:44.000Z,99436
2018-07-28T01:31:44.000Z,99437
2018-07-28T01:33:14.000Z,99434
2018-07-28T01:34:44.000Z,99434
2018-07-28T01:35:44.000Z,99430
2018-07-28T01:37:44.000Z,99435
2018-07-28T01:39:44.000Z,99424
2018-07-28T01:41:44.000Z,99425
2018-07-28T01:43:44.000Z,99421
2018-07-28T01:44:44.000Z,99424
2018-07-28T01:45:44.000Z,99423
2018-07-28T01:46:44.000Z,99423
2018-07-28T01:48:44.000Z,99420
2018-07-28T01:50:44.000Z,99415
2018-07-28T01:52:29.000Z,99415
2018-07-28T01:53:44.000Z,99415
2018-07-28T01:54:44.000Z,99412
2018-07-28T01:56:44.000Z,99408
2018-07-28T01:58:44.000Z,99405
2018-07-28T02:00:44.000Z,99400
2018-07-28T02:01:44.000Z,99405
2018-07-28T02:03:14.000Z,99398
2018-07-28T02:04:44.000Z,99401
2018-07-28T02:06:44.000Z,99394
2018-07-28T02:08:44.000Z,99392
2018-07-28T02:10:44.000Z,99388
2018-07-28T02:12:44.000Z,99378
2018-07-28T02:14:44.000Z,99382
2018-07-28T02:16:44.000Z,99379
2018-07-28T02:17:44.000Z,99383
2018-07-28T02:19:44.000Z,99381
2018-07-28T02:21:44.000Z,99377
2018-07-28T02:23:44.000Z,99376
2018-07-28T02:24:44.000Z,99374
2018-07-28T02:26:44.000Z,99377
2018-07-28T02:28:29.000Z,99368
2018-07-28T02:29:44.000Z,99367
2018-07-28T02:31:29.000Z,99366
2018-07-28T02:32:44.000Z,99362
2018-07-28T02:33:44.000Z,99361
2018-07-28T02:35:44.000Z,99360
2018-07-28T02:37:44.000Z,99360
2018-07-28T02:39:44.000Z,99354
2018-07-28T02:41:44.000Z,99351
2018-07-28T02:43:44.000Z,99359
2018-07-28T02:45:29.000Z,99355
2018-07-28T02:46:44.000Z,99353
2018-07-28T02:48:44.000Z,99359
2018-07-28T02:50:44.000Z,99358
2018-07-28T02:52:44.000Z,99355
2018-07-28T02:54:44.000Z,99356
2018-07-28T02:56:44.000Z,99349
2018-07-28T02:58:44.000Z,99349
2018-07-28T03:00:44.000Z,99346
2018-07-28T03:01:44.000Z,99344
2018-07-28T03:03:44.000Z,99347
2018-07-28T03:05:29.000Z,99349
2018-07-28T03:07:44.000Z,99354
2018-07-28T03:09:44.000Z,99355
2018-07-28T03:11:44.000Z,99349
2018-07-28T03:13:44.000Z,99349
2018-07-28T03:14:44.000Z,99343
2018-07-28T03:16:44.000Z,99351
2018-07-28T03:18:14.000Z,99341
2018-07-28T03:19:44.000Z,99342
2018-07-28T03:21:44.000Z,99339
2018-07-28T03:22:44.000Z,99345
2018-07-28T03:24:44.000Z,99341
2018-07-28T03:25:44.000Z,99338
2018-07-28T03:27:44.000Z,99330
2018-07-28T03:29:44.000Z,99326
2018-07-28T03:31:44.000Z,99329
2018-07-28T03:33:44.000Z,99331
2018-07-28T03:35:44.000Z,99326
2018-07-28T03:37:44.000Z,99325
2018-07-28T03:38:44.000Z,99326
2018-07-28T03:40:44.000Z,99315
2018-07-28T03:42:29.000Z,99316
2018-07-28T03:43:44.000Z,99316
2018-07-28T03:44:44.000Z,99320
2018-07-28T03:46:44.000Z,99338
2018-07-28T03:48:44.000Z,99397
2018-07-28T03:49:44.000Z,99401
2018-07-28T03:51:44.000Z,99401
2018-07-28T03:53:44.000Z,99355
2018-07-28T03:55:44.000Z,99361
2018-07-28T03:56:44.000Z,99366
2018-07-28T03:58:44.000Z,99372
2018-07-28T04:00:29.000Z,99386
2018-07-28T04:02:44.000Z,99371
2018-07-28T04:03:44.000Z,99373
2018-07-28T04:05:29.000Z,99391
2018-07-28T04:06:44.000Z,99389
2018-07-28T04:07:44.000Z,99387
2018-07-28T04:09:44.000Z,99375
2018-07-28T04:11:29.000Z,99400
2018-07-28T04:12:44.000Z,99407
2018-07-28T04:14:44.000Z,99377
2018-07-28T04:16:44.000Z,99359
2018-07-28T04:18:29.000Z,99416
2018-07-28T04:19:44.000Z,99426
2018-07-28T04:21:44.000Z,99405
2018-07-28T04:23:44.000Z,99350
2018-07-28T04:24:44.000Z,99375
2018-07-28T04:26:44.000Z,99418
2018-07-28T04:28:44.000Z,99376
2018-07-28T04:29:44.000Z,99364
2018-07-28T04:31:29.000Z,99415
2018-07-28T04:32:44.000Z,99412
2018-07-28T04:34:44.000Z,99383
2018-07-28T04:36:44.000Z,99396
2018-07-28T04:37:44.000Z,99393
2018-07-28T04:39:44.000Z,99395
2018-07-28T04:40:44.000Z,99372
2018-07-28T04:42:44.000Z,99384
2018-07-28T04:44:44.000Z,99402
2018-07-28T04:45:44.000Z,99405
2018-07-28T04:47:44.000Z,99390
2018-07-28T04:49:44.000Z,99367
2018-07-28T04:51:44.000Z,99361
2018-07-28T04:53:44.000Z,99386
2018-07-28T04:55:44.000Z,99392
2018-07-28T04:57:44.000Z,99378
2018-07-28T04:58:44.000Z,99368
2018-07-28T04:59:44.000Z,99364
2018-07-28T05:01:29.000Z,99358
2018-07-28T05:02:44.000Z,99370
2018-07-28T05:03:44.000Z,99369
2018-07-28T05:05:44.000Z,99358
2018-07-28T05:07:44.000Z,99351
2018-07-28T05:09:29.000Z,99361
2018-07-28T05:10:44.000Z,99359
2018-07-28T05:12:44.000Z,99360
2018-07-28T05:14:44.000Z,99358
2018-07-28T05:15:44.000Z,99354
2018-07-28T05:17:44.000Z,99349
2018-07-28T05:19:44.000Z,99343
2018-07-28T05:21:44.000Z,99348
2018-07-28T05:23:29.000Z,99351
2018-07-28T05:24:44.000Z,99358
2018-07-28T05:26:44.000Z,99360
2018-07-28T05:28:14.000Z,99363
2018-07-28T05:29:44.000Z,99355
2018-07-28T05:31:29.000Z,99350
2018-07-28T05:32:44.000Z,99351
2018-07-28T05:33:44.000Z,99344
2018-07-28T05:35:44.000Z,99347
2018-07-28T05:37:14.000Z,99344
2018-07-28T05:38:44.000Z,99348
2018-07-28T05:40:44.000Z,99339
2018-07-28T05:42:44.000Z,99337
2018-07-28T05:44:44.000Z,99343
2018-07-28T05:45:44.000Z,99340
2018-07-28T05:47:44.000Z,99345
2018-07-28T05:48:44.000Z,99344
2018-07-28T05:50:44.000Z,99337
2018-07-28T05:52:44.000Z,99333
2018-07-28T05:53:44.000Z,99328
2018-07-28T05:55:44.000Z,99323
2018-07-28T05:56:44.000Z,99327
2018-07-28T05:58:29.000Z,99325
2018-07-28T05:59:44.000Z,99319
2018-07-28T06:01:44.000Z,99322
2018-07-28T06:03:44.000Z,99324
2018-07-28T06:04:44.000Z,99324
2018-07-28T06:06:44.000Z,99336
2018-07-28T06:08:44.000Z,99345
2018-07-28T06:10:44.000Z,99335
2018-07-28T06:11:44.000Z,99343
2018-07-28T06:13:44.000Z,99339
2018-07-28T06:15:44.000Z,99338
2018-07-28T06:17:44.000Z,99331
2018-07-28T06:19:44.000Z,99337
2018-07-28T06:20:44.000Z,99340
2018-07-28T06:21:44.000Z,99345
2018-07-28T06:23:44.000Z,99349
2018-07-28T06:24:44.000Z,99356
2018-07-28T06:26:44.000Z,99352
2018-07-28T06:27:44.000Z,99348
2018-07-28T06:28:44.000Z,99348
2018-07-28T06:29:44.000Z,99348
2018-07-28T06:31:44.000Z,99348
2018-07-28T06:33:44.000Z,99345
2018-07-28T06:35:44.000Z,99344
2018-07-28T06:37:29.000Z,99347
2018-07-28T06:38:44.000Z,99349
2018-07-28T06:39:44.000Z,99345
2018-07-28T06:41:44.000Z,99360
2018-07-28T06:43:44.000Z,99395
2018-07-28T06:45:44.000Z,99430
2018-07-28T06:46:44.000Z,99430
2018-07-28T06:48:44.000Z,99418
2018-07-28T06:49:44.000Z,99412
2018-07-28T06:51:44.000Z,99425
2018-07-28T06:53:44.000Z,99434
2018-07-28T06:55:44.000Z,99430
2018-07-28T06:56:44.000Z,99427
2018-07-28T06:58:44.000Z,99442
2018-07-28T07:00:44.000Z,99440
2018-07-28T07:02:44.000Z,99432
2018-07-28T07:04:44.000Z,99442
2018-07-28T07:05:44.000Z,99450
2018-07-28T07:07:44.000Z,99451
2018-07-28T07:09:44.000Z,99456
2018-07-28T07:11:29.000Z,99464
2018-07-28T07:12:44.000Z,99477
2018-07-28T07:14:44.000Z,99474
2018-07-28T07:15:44.000Z,99472
2018-07-28T07:17:44.000Z,99466
2018-07-28T07:19:44.000Z,99465
2018-07-28T07:21:44.000Z,99473
2018-07-28T07:22:44.000Z,99474
2018-07-28T07:24:44.000Z,99467
2018-07-28T07:26:29.000Z,99464
2018-07-28T07:27:44.000Z,99461
2018-07-28T07:29:44.000Z,99465
2018-07-28T07:31:44.000Z,99462
2018-07-28T07:33:29.000Z,99471
2018-07-28T07:34:44.000Z,99462
2018-07-28T07:35:44.000Z,99459
2018-07-28T07:37:44.000Z,99462
2018-07-28T07:39:44.000Z,99456
2018-07-28T07:41:44.000Z,99450
2018-07-28T07:42:44.000Z,99457
2018-07-28T07:44:44.000Z,99452
2018-07-28T07:46:44.000Z,99447
2018-07-28T07:47:44.000Z,99449
2018-07-28T07:49:44.000Z,99431
2018-07-28T07:51:29.000Z,99440
2018-07-28T07:52:44.000Z,99450
2018-07-28T07:54:44.000Z,99456
2018-07-28T07:56:44.000Z,99463
2018-07-28T07:57:44.000Z,99462
2018-07-28T07:59:29.000Z,99466
2018-07-28T08:00:44.000Z,99466
2018-07-28T08:01:44.000Z,99465
2018-07-28T08:03:44.000Z,99471
2018-07-28T08:04:44.000Z,99469
2018-07-28T08:06:44.000Z,99483
2018-07-28T08:08:29.000Z,99485
2018-07-28T08:09:44.000Z,99487
2018-07-28T08:11:44.000Z,99493
2018-07-28T08:12:44.000Z,99484
2018-07-28T08:14:44.000Z,99480
2018-07-28T08:16:44.000Z,99484
2018-07-28T08:17:44.000Z,99483
2018-07-28T08:19:44.000Z,99492
2018-07-28T08:21:44.000Z,99494
2018-07-28T08:22:44.000Z,99502
2018-07-28T08:24:44.000Z,99501
2018-07-28T08:26:44.000Z,99504
2018-07-28T08:28:44.000Z,99506
2018-07-28T08:30:44.000Z,99502
2018-07-28T08:35:44.000Z,99513
2018-07-28T08:37:15.000Z,99505
2018-07-28T08:38:30.000Z,99505
2018-07-28T08:40:30.000Z,99500
2018-07-28T08:42:30.000Z,99499
2018-07-28T08:43:30.000Z,99497
2018-07-28T08:45:30.000Z,99493
2018-07-28T08:47:30.000Z,99496
2018-07-28T08:48:30.000Z,99491
2018-07-28T08:50:30.000Z,99502
2018-07-28T08:52:30.000Z,99494
2018-07-28T08:53:37.000Z,99487
2018-07-28T08:55:37.000Z,99483
2018-07-28T08:56:37.000Z,99479
2018-07-28T08:58:37.000Z,99481
2018-07-28T09:00:37.000Z,99489
2018-07-28T09:01:37.000Z,99482
2018-07-28T09:02:37.000Z,99489
2018-07-28T09:04:37.000Z,99501
2018-07-28T09:06:37.000Z,99514
2018-07-28T09:08:37.000Z,99529
2018-07-28T09:10:22.000Z,99538
2018-07-28T09:11:37.000Z,99542
2018-07-28T09:13:37.000Z,99552
2018-07-28T09:14:37.000Z,99551
2018-07-28T09:16:37.000Z,99552
2018-07-28T09:17:37.000Z,99554
2018-07-28T09:18:37.000Z,99556
2018-07-28T09:20:37.000Z,99551
2018-07-28T09:21:37.000Z,99549
2018-07-28T09:23:37.000Z,99553
2018-07-28T09:24:37.000Z,99552
2018-07-28T09:26:37.000Z,99554
2018-07-28T09:28:37.000Z,99551
2018-07-28T09:30:37.000Z,99556
2018-07-28T09:32:37.000Z,99556
2018-07-28T09:33:37.000Z,99556
2018-07-28T09:34:37.000Z,99558
2018-07-28T09:36:37.000Z,99564
2018-07-28T09:38:37.000Z,99566
2018-07-28T09:40:22.000Z,99566
2018-07-28T09:41:38.000Z,99568
2018-07-28T09:43:22.000Z,99560
2018-07-28T09:44:38.000Z,99560
2018-07-28T09:46:22.000Z,99560
2018-07-28T09:47:38.000Z,99570
2018-07-28T09:48:38.000Z,99574
2018-07-28T09:50:38.000Z,99584
2018-07-28T09:52:22.000Z,99589
2018-07-28T09:54:38.000Z,99581
2018-07-28T09:56:38.000Z,99582
2018-07-28T09:58:38.000Z,99573
2018-07-28T09:59:38.000Z,99576
2018-07-28T10:01:38.000Z,99579
2018-07-28T10:03:38.000Z,99581
2018-07-28T10:05:38.000Z,99587
2018-07-28T10:06:38.000Z,99586
2018-07-28T10:07:38.000Z,99595
2018-07-28T10:08:38.000Z,99591
2018-07-28T10:10:22.000Z,99589
2018-07-28T10:11:38.000Z,99587
2018-07-28T10:12:38.000Z,99583
2018-07-28T10:14:22.000Z,99583
2018-07-28T10:15:38.000Z,99582
2018-07-28T10:17:22.000Z,99583
2018-07-28T10:18:38.000Z,99579
2018-07-28T10:19:38.000Z,99580
2018-07-28T10:21:38.000Z,99579
2018-07-28T10:23:22.000Z,99583
2018-07-28T10:24:38.000Z,99579
2018-07-28T10:26:38.000Z,99583
2018-07-28T10:27:38.000Z,99578
2018-07-28T10:29:22.000Z,99584
2018-07-28T10:30:38.000Z,99590
2018-07-28T10:31:38.000Z,99586
2018-07-28T10:33:22.000Z,99588
2018-07-28T10:34:38.000Z,99588
2018-07-28T10:35:38.000Z,99591
2018-07-28T10:37:38.000Z,99574
2018-07-28T10:38:38.000Z,99573
2018-07-28T10:39:38.000Z,99571
2018-07-28T10:41:38.000Z,99573
2018-07-28T10:43:38.000Z,99574
2018-07-28T10:44:38.000Z,99568
2018-07-28T10:46:38.000Z,99567
2018-07-28T10:48:38.000Z,99557
2018-07-28T10:50:38.000Z,99555
2018-07-28T10:52:07.000Z,99570
2018-07-28T10:53:38.000Z,99575
2018-07-28T10:54:38.000Z,99575
2018-07-28T10:56:22.000Z,99575
2018-07-28T10:57:38.000Z,99582
2018-07-28T10:58:38.000Z,99579
2018-07-28T10:59:38.000Z,99582
2018-07-28T11:01:38.000Z,99582
2018-07-28T11:03:22.000Z,99595
2018-07-28T11:04:38.000Z,99584
2018-07-28T11:05:38.000Z,99588
2018-07-28T11:07:38.000Z,99578
2018-07-28T11:08:38.000Z,99580
2018-07-28T11:10:38.000Z,99575
2018-07-28T11:12:22.000Z,99572
2018-07-28T11:13:38.000Z,99570
2018-07-28T11:15:38.000Z,99569
2018-07-28T11:16:38.000Z,99565
2018-07-28T11:18:38.000Z,99561
2018-07-28T11:20:38.000Z,99554
2018-07-28T11:21:38.000Z,99551
2018-07-28T11:23:38.000Z,99558
2018-07-28T11:25:38.000Z,99555
2018-07-28T11:26:38.000Z,99546
2018-07-28T11:28:38.000Z,99558
2018-07-28T11:30:38.000Z,99560
2018-07-28T11:31:38.000Z,99561
2018-07-28T11:32:38.000Z,99562
2018-07-28T11:34:38.000Z,99564
2018-07-28T11:36:22.000Z,99562
2018-07-28T11:37:38.000Z,99569
2018-07-28T11:38:38.000Z,99569
2018-07-28T11:40:38.000Z,99565
2018-07-28T11:41:38.000Z,99567
2018-07-28T11:42:38.000Z,99568
2018-07-28T11:44:38.000Z,99567
2018-07-28T11:45:38.000Z,99574
2018-07-28T11:46:38.000Z,99568
2018-07-28T11:48:37.000Z,99563
2018-07-28T11:49:37.000Z,99560
2018-07-28T11:51:22.000Z,99556
2018-07-28T11:52:37.000Z,99555
2018-07-28T11:54:37.000Z,99557
2018-07-28T11:56:37.000Z,99549
2018-07-28T11:58:22.000Z,99543
2018-07-28T11:59:37.000Z,99538
2018-07-28T12:01:22.000Z,99540
2018-07-28T12:02:37.000Z,99531
2018-07-28T12:03:37.000Z,99530
2018-07-28T12:05:37.000Z,99532
2018-07-28T12:07:37.000Z,99540
2018-07-28T12:08:37.000Z,99532
2018-07-28T12:10:22.000Z,99538
2018-07-28T12:11:22.000Z,99519
2018-07-28T12:12:37.000Z,99534
2018-07-28T12:14:37.000Z,99535
2018-07-28T12:16:37.000Z,99539
2018-07-28T12:18:37.000Z,99540
2018-07-28T12:19:37.000Z,99545
2018-07-28T12:21:37.000Z,99548
2018-07-28T12:23:37.000Z,99540
2018-07-28T12:24:37.000Z,99544
2018-07-28T12:25:37.000Z,99542
2018-07-28T12:27:37.000Z,99546
2018-07-28T12:28:37.000Z,99544
2018-07-28T12:30:37.000Z,99550
2018-07-28T12:32:22.000Z,99560
2018-07-28T12:33:37.000Z,99559
2018-07-28T12:35:37.000Z,99558
2018-07-28T12:37:37.000Z,99560
2018-07-28T12:39:37.000Z,99567
2018-07-28T12:41:37.000Z,99568
2018-07-28T12:43:22.000Z,99559
2018-07-28T12:44:37.000Z,99567
2018-07-28T12:45:37.000Z,99568
2018-07-28T12:46:37.000Z,99565
2018-07-28T12:48:37.000Z,99564
2018-07-28T12:50:37.000Z,99567
2018-07-28T12:52:37.000Z,99563
2018-07-28T12:53:37.000Z,99565
2018-07-28T12:55:37.000Z,99562
2018-07-28T12:56:37.000Z,99563
2018-07-28T12:58:37.000Z,99561
2018-07-28T13:00:37.000Z,99556
2018-07-28T13:01:37.000Z,99553
2018-07-28T13:02:37.000Z,99550
2018-07-28T13:04:22.000Z,99559
2018-07-28T13:05:37.000Z,99559
2018-07-28T13:07:37.000Z,99564
2018-07-28T13:08:37.000Z,99562
2018-07-28T13:10:37.000Z,99557
2018-07-28T13:12:37.000Z,99563
2018-07-28T13:13:37.000Z,99560
2018-07-28T13:15:37.000Z,99561
2018-07-28T13:17:37.000Z,99566
2018-07-28T13:19:37.000Z,99561
2018-07-28T13:21:37.000Z,99561
2018-07-28T13:23:07.000Z,99562
2018-07-28T13:24:37.000Z,99563
2018-07-28T13:26:37.000Z,99562
2018-07-28T13:28:37.000Z,99565
2018-07-28T13:30:37.000Z,99559
2018-07-28T13:32:37.000Z,99565
2018-07-28T13:34:37.000Z,99571
2018-07-28T13:35:37.000Z,99564
2018-07-28T13:37:37.000Z,99568
2018-07-28T13:38:37.000Z,99564
2018-07-28T13:39:37.000Z,99556
2018-07-28T13:41:37.000Z,99560
2018-07-28T13:43:37.000Z,99547
2018-07-28T13:45:37.000Z,99550
2018-07-28T13:47:37.000Z,99551
2018-07-28T13:49:37.000Z,99555
2018-07-28T13:51:37.000Z,99546
2018-07-28T13:52:37.000Z,99543
2018-07-28T13:54:37.000Z,99544
2018-07-28T13:56:37.000Z,99539
2018-07-28T13:57:37.000Z,99540
2018-07-28T13:59:22.000Z,99529
2018-07-28T14:00:37.000Z,99530
2018-07-28T14:02:37.000Z,99529
2018-07-28T14:03:37.000Z,99527
2018-07-28T14:04:37.000Z,99526
2018-07-28T14:06:37.000Z,99528
2018-07-28T14:07:37.000Z,99533
2018-07-28T14:09:37.000Z,99528
2018-07-28T14:10:37.000Z,99536
2018-07-28T14:12:37.000Z,99533
2018-07-28T14:13:37.000Z,99528
2018-07-28T14:15:37.000Z,99525
2018-07-28T14:17:37.000Z,99522
2018-07-28T14:18:37.000Z,99521
2018-07-28T14:20:37.000Z,99520
2018-07-28T14:22:22.000Z,99527
2018-07-28T14:23:37.000Z,99528
2018-07-28T14:25:07.000Z,99525
2018-07-28T14:26:37.000Z,99523
2018-07-28T14:28:37.000Z,99528
2018-07-28T14:30:37.000Z,99527
2018-07-28T14:32:37.000Z,99525
2018-07-28T14:34:37.000Z,99536
2018-07-28T14:36:37.000Z,99536
2018-07-28T14:38:37.000Z,99543
2018-07-28T14:40:37.000Z,99545
2018-07-28T14:42:37.000Z,99545
2018-07-28T14:44:37.000Z,99539
2018-07-28T14:46:37.000Z,99549
2018-07-28T14:48:37.000Z,99548
2018-07-28T14:50:37.000Z,99561
2018-07-28T14:52:37.000Z,99559
2018-07-28T14:53:37.000Z,99557
2018-07-28T14:55:37.000Z,99547
2018-07-28T14:57:37.000Z,99555
2018-07-28T14:58:37.000Z,99546
2018-07-28T15:00:22.000Z,99546
2018-07-28T15:01:38.000Z,99552
2018-07-28T15:03:38.000Z,99544
2018-07-28T15:05:38.000Z,99545
2018-07-28T15:07:38.000Z,99551
2018-07-28T15:08:38.000Z,99543
2018-07-28T15:10:22.000Z,99551
2018-07-28T15:11:38.000Z,99555
2018-07-28T15:12:38.000Z,99551
2018-07-28T15:14:38.000Z,99556
2018-07-28T15:15:38.000Z,99558
2018-07-28T15:17:38.000Z,99556
2018-07-28T15:18:38.000Z,99553
2018-07-28T15:19:38.000Z,99569
2018-07-28T15:21:38.000Z,99573
2018-07-28T15:23:22.000Z,99576
2018-07-28T15:24:38.000Z,99577
2018-07-28T15:25:38.000Z,99576
2018-07-28T15:27:22.000Z,99571
2018-07-28T15:28:38.000Z,99573
2018-07-28T15:29:38.000Z,99573
2018-07-28T15:31:38.000Z,99568
2018-07-28T15:33:38.000Z,99574
2018-07-28T15:35:38.000Z,99585
2018-07-28T15:37:38.000Z,99584
2018-07-28T15:39:22.000Z,99580
2018-07-28T15:40:38.000Z,99585
2018-07-28T15:42:38.000Z,99583
2018-07-28T15:43:38.000Z,99587
2018-07-28T15:45:38.000Z,99582
2018-07-28T15:47:22.000Z,99585
2018-07-28T15:48:38.000Z,99584
2018-07-28T15:50:38.000Z,99590
2018-07-28T15:51:38.000Z,99593
2018-07-28T15:53:38.000Z,99586
2018-07-28T15:55:38.000Z,99581
2018-07-28T15:57:38.000Z,99587
2018-07-28T15:59:38.000Z,99601
2018-07-28T16:01:38.000Z,99589
2018-07-28T16:03:38.000Z,99590
2018-07-28T16:05:23.000Z,99591
2018-07-28T16:06:38.000Z,99590
2018-07-28T16:08:38.000Z,99590
2018-07-28T16:10:38.000Z,99607
2018-07-28T16:12:38.000Z,99611
2018-07-28T16:14:38.000Z,99609
2018-07-28T16:15:38.000Z,99605
2018-07-28T16:17:38.000Z,99609
2018-07-28T16:19:38.000Z,99612
2018-07-28T16:21:38.000Z,99617
2018-07-28T16:23:23.000Z,99625
2018-07-28T16:24:38.000Z,99638
2018-07-28T16:26:38.000Z,99628
2018-07-28T16:28:23.000Z,99635
2018-07-28T16:29:38.000Z,99632
2018-07-28T16:30:38.000Z,99633
2018-07-28T16:32:38.000Z,99622
2018-07-28T16:33:38.000Z,99626
2018-07-28T16:35:38.000Z,99630
2018-07-28T16:36:38.000Z,99639
2018-07-28T16:38:38.000Z,99645
2018-07-28T16:40:38.000Z,99653
2018-07-28T16:42:38.000Z,99654
2018-07-28T16:44:38.000Z,99657
2018-07-28T16:45:38.000Z,99666
2018-07-28T16:47:38.000Z,99677
2018-07-28T16:49:38.000Z,99688
2018-07-28T16:51:38.000Z,99687
2018-07-28T16:53:38.000Z,99693
2018-07-28T16:55:38.000Z,99686
2018-07-28T16:57:38.000Z,99699
2018-07-28T16:58:38.000Z,99706
2018-07-28T16:59:38.000Z,99700
2018-07-28T17:01:38.000Z,99705
2018-07-28T17:03:38.000Z,99703
2018-07-28T17:05:38.000Z,99704
2018-07-28T17:07:23.000Z,99712
2018-07-28T17:08:38.000Z,99717
2018-07-28T17:09:38.000Z,99722
2018-07-28T17:10:38.000Z,99718
2018-07-28T17:11:38.000Z,99727
2018-07-28T17:13:23.000Z,99734
2018-07-28T17:14:38.000Z,99732
2018-07-28T17:15:38.000Z,99741
2018-07-28T17:17:38.000Z,99746
2018-07-28T17:19:23.000Z,99753
2018-07-28T17:20:38.000Z,99761
2018-07-28T17:22:38.000Z,99774
2018-07-28T17:24:38.000Z,99784
2018-07-28T17:25:38.000Z,99782
2018-07-28T17:27:23.000Z,99790
2018-07-28T17:28:38.000Z,99794
2018-07-28T17:29:38.000Z,99802
2018-07-28T17:31:23.000Z,99803
2018-07-28T17:32:38.000Z,99810
2018-07-28T17:34:38.000Z,99804
2018-07-28T17:35:38.000Z,99815
2018-07-28T17:37:38.000Z,99814
2018-07-28T17:38:38.000Z,99823
2018-07-28T17:40:38.000Z,99832
2018-07-28T17:42:38.000Z,99834
2018-07-28T17:44:38.000Z,99833
2018-07-28T17:46:38.000Z,99839
2018-07-28T17:47:38.000Z,99845
2018-07-28T17:49:38.000Z,99837
2018-07-28T17:51:38.000Z,99828
2018-07-28T17:53:23.000Z,99823
2018-07-28T17:54:38.000Z,99826
2018-07-28T17:56:23.000Z,99826
2018-07-28T17:57:38.000Z,99828
2018-07-28T17:59:38.000Z,99835
2018-07-28T18:01:23.000Z,99841
2018-07-28T18:02:38.000Z,99840
2018-07-28T18:03:38.000Z,99842
2018-07-28T18:04:38.000Z,99841
2018-07-28T18:06:38.000Z,99856
2018-07-28T18:08:23.000Z,99858
2018-07-28T18:09:38.000Z,99863
2018-07-28T18:11:23.000Z,99859
2018-07-28T18:12:38.000Z,99864
2018-07-28T18:14:38.000Z,99869
2018-07-28T18:16:38.000Z,99863
2018-07-28T18:18:38.000Z,99865
2018-07-28T18:19:38.000Z,99866
2018-07-28T18:21:38.000Z,99866
2018-07-28T18:22:38.000Z,99871
2018-07-28T18:24:38.000Z,99869
2018-07-28T18:25:38.000Z,99869
2018-07-28T18:27:38.000Z,99878
2018-07-28T18:29:38.000Z,99887
2018-07-28T18:31:38.000Z,99899
2018-07-28T18:32:38.000Z,99897
2018-07-28T18:34:38.000Z,99902
2018-07-28T18:36:38.000Z,99901
2018-07-28T18:38:38.000Z,99902
2018-07-28T18:39:38.000Z,99912
2018-07-28T18:41:38.000Z,99910
2018-07-28T18:42:38.000Z,99912
2018-07-28T18:44:38.000Z,99914
2018-07-28T18:46:38.000Z,99914
2018-07-28T18:48:38.000Z,99914
2018-07-28T18:50:38.000Z,99916
2018-07-28T18:51:38.000Z,99919
2018-07-28T18:53:38.000Z,99915
2018-07-28T18:55:38.000Z,99916
2018-07-28T18:57:23.000Z,99915
2018-07-28T18:58:38.000Z,99916
2018-07-28T19:00:38.000Z,99916
2018-07-28T19:02:38.000Z,99913
2018-07-28T19:04:38.000Z,99915
2018-07-28T19:05:38.000Z,99914
2018-07-28T19:06:38.000Z,99914
2018-07-28T19:07:38.000Z,99915
2018-07-28T19:09:23.000Z,99918
2018-07-28T19:10:38.000Z,99921
2018-07-28T19:11:38.000Z,99924
2018-07-28T19:13:23.000Z,99926
2018-07-28T19:14:38.000Z,99926
2018-07-28T19:16:38.000Z,99937
2018-07-28T19:18:38.000Z,99935
2018-07-28T19:19:38.000Z,99941
2018-07-28T19:21:38.000Z,99935
2018-07-28T19:23:38.000Z,99946
2018-07-28T19:24:38.000Z,99944
2018-07-28T19:26:38.000Z,99943
2018-07-28T19:27:38.000Z,99943
2018-07-28T19:29:38.000Z,99948
2018-07-28T19:30:38.000Z,99949
2018-07-28T19:32:38.000Z,99951
2018-07-28T19:33:38.000Z,99952
2018-07-28T19:34:38.000Z,99958
2018-07-28T19:36:38.000Z,99966
2018-07-28T19:38:38.000Z,99962
2018-07-28T19:39:38.000Z,99965
2018-07-28T19:40:38.000Z,99964
2018-07-28T19:42:38.000Z,99971
2018-07-28T19:44:38.000Z,99965
2018-07-28T19:45:38.000Z,99968
2018-07-28T19:47:38.000Z,99969
2018-07-28T19:49:38.000Z,99969
2018-07-28T19:51:38.000Z,99975
2018-07-28T19:53:38.000Z,99985
2018-07-28T19:54:38.000Z,99981
2018-07-28T19:55:38.000Z,99987
2018-07-28T19:57:38.000Z,99995
2018-07-28T19:59:38.000Z,99999
2018-07-28T20:01:38.000Z,99998
2018-07-28T20:03:38.000Z,100000
2018-07-28T20:05:38.000Z,100007
2018-07-28T20:06:38.000Z,100008
2018-07-28T20:08:38.000Z,100008
2018-07-28T20:09:38.000Z,100011
2018-07-28T20:11:38.000Z,100014
2018-07-28T20:13:38.000Z,100021
2018-07-28T20:15:38.000Z,100025
2018-07-28T20:16:38.000Z,100030
2018-07-28T20:18:37.000Z,100034
2018-07-28T20:20:37.000Z,100032
2018-07-28T20:22:37.000Z,100037
2018-07-28T20:23:37.000Z,100036
2018-07-28T20:25:37.000Z,100047
2018-07-28T20:27:22.000Z,100048
2018-07-28T20:28:37.000Z,100049
2018-07-28T20:29:37.000Z,100048
2018-07-28T20:31:22.000Z,100049
2018-07-28T20:32:37.000Z,100051
2018-07-28T20:33:37.000Z,100053
2018-07-28T20:35:37.000Z,100058
2018-07-28T20:37:22.000Z,100060
2018-07-28T20:38:37.000Z,100059
2018-07-28T20:40:37.000Z,100060
2018-07-28T20:41:37.000Z,100065
2018-07-28T20:43:37.000Z,100061
2018-07-28T20:45:22.000Z,100064
2018-07-28T20:46:37.000Z,100059
2018-07-28T20:47:37.000Z,100058
2018-07-28T20:49:37.000Z,100056
2018-07-28T20:50:37.000Z,100065
2018-07-28T20:52:37.000Z,100054
2018-07-28T20:54:37.000Z,100061
2018-07-28T20:55:37.000Z,100059